sensor_id;sensor_type;location;lat;lon;timestamp;P1;durP1;ratioP1;P2;durP2;ratioP2
21671;SDS011;10997;52.242;8.168;2023-01-31T00:03:01;31.27;;;4.72;;
21671;SDS011;10997;52.242;8.168;2023-01-31T00:08:05;36.63;;;4.03;;
21671;SDS011;10997;52.242;8.168;2023-01-31T00:13:05;29.92;;;4.68;;
21671;SDS011;10997;52.242;8.168;2023-01-31T00:18:06;26.83;;;4.43;;
21671;SDS011;10997;52.242;8.168;2023-01-31T00:23:06;32.55;;;4.20;;
21671;SDS011;10997;52.242;8.168;2023-01-31T00:28:07;28.75;;;3.75;;
21671;SDS011;10997;52.242;8.168;2023-01-31T00:33:08;40.20;;;4.57;;
21671;SDS011;10997;52.242;8.168;2023-01-31T00:38:08;30.58;;;4.03;;
21671;SDS011;10997;52.242;8.168;2023-01-31T00:43:09;30.73;;;3.88;;
21671;SDS011;10997;52.242;8.168;2023-01-31T00:48:09;25.42;;;3.55;;
21671;SDS011;10997;52.242;8.168;2023-01-31T00:53:10;38.42;;;4.03;;
21671;SDS011;10997;52.242;8.168;2023-01-31T00:58:11;30.20;;;4.15;;
21671;SDS011;10997;52.242;8.168;2023-01-31T01:03:11;42.63;;;4.20;;
21671;SDS011;10997;52.242;8.168;2023-01-31T01:08:12;26.48;;;4.35;;
21671;SDS011;10997;52.242;8.168;2023-01-31T01:13:13;30.40;;;4.57;;
21671;SDS011;10997;52.242;8.168;2023-01-31T01:18:13;31.17;;;3.63;;
21671;SDS011;10997;52.242;8.168;2023-01-31T01:23:14;35.63;;;3.83;;
21671;SDS011;10997;52.242;8.168;2023-01-31T01:28:15;27.67;;;4.03;;
21671;SDS011;10997;52.242;8.168;2023-01-31T01:33:15;31.65;;;3.65;;
21671;SDS011;10997;52.242;8.168;2023-01-31T01:38:16;25.65;;;4.13;;
21671;SDS011;10997;52.242;8.168;2023-01-31T01:43:17;23.33;;;3.60;;
21671;SDS011;10997;52.242;8.168;2023-01-31T01:48:17;26.88;;;3.80;;
21671;SDS011;10997;52.242;8.168;2023-01-31T01:53:21;29.45;;;4.13;;
21671;SDS011;10997;52.242;8.168;2023-01-31T01:58:35;21.00;;;2.92;;
21671;SDS011;10997;52.242;8.168;2023-01-31T02:03:42;26.27;;;3.70;;
21671;SDS011;10997;52.242;8.168;2023-01-31T02:08:44;32.80;;;3.78;;
21671;SDS011;10997;52.242;8.168;2023-01-31T02:13:45;30.15;;;3.90;;
21671;SDS011;10997;52.242;8.168;2023-01-31T02:18:53;27.90;;;3.95;;
21671;SDS011;10997;52.242;8.168;2023-01-31T02:24:13;22.80;;;3.53;;
21671;SDS011;10997;52.242;8.168;2023-01-31T02:29:31;31.10;;;4.43;;
21671;SDS011;10997;52.242;8.168;2023-01-31T02:55:56;26.13;;;4.63;;
21671;SDS011;10997;52.242;8.168;2023-01-31T03:01:23;26.77;;;4.00;;
21671;SDS011;10997;52.242;8.168;2023-01-31T03:11:45;14.52;;;3.28;;
21671;SDS011;10997;52.242;8.168;2023-01-31T03:17:13;26.13;;;3.28;;
21671;SDS011;10997;52.242;8.168;2023-01-31T03:22:32;25.60;;;3.90;;
21671;SDS011;10997;52.242;8.168;2023-01-31T03:27:36;23.17;;;3.78;;
21671;SDS011;10997;52.242;8.168;2023-01-31T03:32:44;26.25;;;3.80;;
21671;SDS011;10997;52.242;8.168;2023-01-31T03:37:54;21.42;;;3.55;;
21671;SDS011;10997;52.242;8.168;2023-01-31T03:43:18;28.30;;;4.38;;
21671;SDS011;10997;52.242;8.168;2023-01-31T03:48:38;24.05;;;4.25;;
21671;SDS011;10997;52.242;8.168;2023-01-31T03:53:48;28.73;;;4.78;;
21671;SDS011;10997;52.242;8.168;2023-01-31T03:59:03;28.42;;;4.18;;
21671;SDS011;10997;52.242;8.168;2023-01-31T04:04:09;24.25;;;4.28;;
21671;SDS011;10997;52.242;8.168;2023-01-31T04:09:13;28.17;;;4.80;;
21671;SDS011;10997;52.242;8.168;2023-01-31T04:14:14;23.92;;;3.80;;
21671;SDS011;10997;52.242;8.168;2023-01-31T04:19:15;22.10;;;3.58;;
21671;SDS011;10997;52.242;8.168;2023-01-31T04:24:16;20.88;;;3.15;;
21671;SDS011;10997;52.242;8.168;2023-01-31T04:29:16;22.00;;;4.20;;
21671;SDS011;10997;52.242;8.168;2023-01-31T04:34:17;24.25;;;4.00;;
21671;SDS011;10997;52.242;8.168;2023-01-31T04:39:18;26.58;;;3.35;;
21671;SDS011;10997;52.242;8.168;2023-01-31T04:44:18;21.45;;;4.43;;
21671;SDS011;10997;52.242;8.168;2023-01-31T04:49:19;20.13;;;4.38;;
21671;SDS011;10997;52.242;8.168;2023-01-31T04:54:21;22.15;;;4.05;;
21671;SDS011;10997;52.242;8.168;2023-01-31T04:59:22;21.45;;;3.65;;
21671;SDS011;10997;52.242;8.168;2023-01-31T05:04:28;21.13;;;4.40;;
21671;SDS011;10997;52.242;8.168;2023-01-31T05:09:29;26.00;;;4.55;;
21671;SDS011;10997;52.242;8.168;2023-01-31T05:14:29;26.90;;;4.45;;
21671;SDS011;10997;52.242;8.168;2023-01-31T05:19:31;18.40;;;4.38;;
21671;SDS011;10997;52.242;8.168;2023-01-31T05:24:32;25.25;;;4.53;;
21671;SDS011;10997;52.242;8.168;2023-01-31T05:29:33;26.98;;;5.38;;
21671;SDS011;10997;52.242;8.168;2023-01-31T05:34:33;33.75;;;5.97;;
21671;SDS011;10997;52.242;8.168;2023-01-31T05:39:34;33.53;;;5.93;;
21671;SDS011;10997;52.242;8.168;2023-01-31T05:44:36;26.58;;;6.13;;
21671;SDS011;10997;52.242;8.168;2023-01-31T05:49:36;29.42;;;6.90;;
21671;SDS011;10997;52.242;8.168;2023-01-31T05:54:37;27.40;;;6.78;;
21671;SDS011;10997;52.242;8.168;2023-01-31T05:59:37;37.45;;;7.45;;
21671;SDS011;10997;52.242;8.168;2023-01-31T06:04:38;42.38;;;8.98;;
21671;SDS011;10997;52.242;8.168;2023-01-31T06:09:38;35.50;;;8.30;;
21671;SDS011;10997;52.242;8.168;2023-01-31T06:14:40;27.63;;;8.63;;
21671;SDS011;10997;52.242;8.168;2023-01-31T06:19:41;32.72;;;8.85;;
21671;SDS011;10997;52.242;8.168;2023-01-31T06:24:42;29.63;;;9.00;;
21671;SDS011;10997;52.242;8.168;2023-01-31T06:29:42;30.80;;;8.80;;
21671;SDS011;10997;52.242;8.168;2023-01-31T06:34:46;22.75;;;8.02;;
21671;SDS011;10997;52.242;8.168;2023-01-31T06:39:47;29.20;;;8.82;;
21671;SDS011;10997;52.242;8.168;2023-01-31T06:44:47;33.13;;;8.98;;
21671;SDS011;10997;52.242;8.168;2023-01-31T06:49:48;32.47;;;9.32;;
21671;SDS011;10997;52.242;8.168;2023-01-31T06:54:48;34.85;;;8.45;;
21671;SDS011;10997;52.242;8.168;2023-01-31T06:59:49;30.80;;;8.57;;
21671;SDS011;10997;52.242;8.168;2023-01-31T07:04:50;28.92;;;8.00;;
21671;SDS011;10997;52.242;8.168;2023-01-31T07:09:51;26.70;;;8.15;;
21671;SDS011;10997;52.242;8.168;2023-01-31T07:14:52;32.03;;;10.13;;
21671;SDS011;10997;52.242;8.168;2023-01-31T07:19:53;31.77;;;9.50;;
21671;SDS011;10997;52.242;8.168;2023-01-31T07:24:54;33.72;;;10.57;;
21671;SDS011;10997;52.242;8.168;2023-01-31T07:29:54;35.42;;;11.38;;
21671;SDS011;10997;52.242;8.168;2023-01-31T07:34:55;31.40;;;10.48;;
21671;SDS011;10997;52.242;8.168;2023-01-31T07:39:55;38.95;;;11.82;;
21671;SDS011;10997;52.242;8.168;2023-01-31T07:44:56;40.13;;;12.00;;
21671;SDS011;10997;52.242;8.168;2023-01-31T07:49:57;35.20;;;11.93;;
21671;SDS011;10997;52.242;8.168;2023-01-31T07:54:57;29.85;;;11.75;;
21671;SDS011;10997;52.242;8.168;2023-01-31T07:59:58;39.10;;;12.35;;
21671;SDS011;10997;52.242;8.168;2023-01-31T08:04:59;37.45;;;12.60;;
21671;SDS011;10997;52.242;8.168;2023-01-31T08:09:59;37.28;;;12.45;;
21671;SDS011;10997;52.242;8.168;2023-01-31T08:15:00;42.95;;;13.18;;
21671;SDS011;10997;52.242;8.168;2023-01-31T08:20:02;27.50;;;10.70;;
21671;SDS011;10997;52.242;8.168;2023-01-31T08:25:03;36.20;;;13.95;;
21671;SDS011;10997;52.242;8.168;2023-01-31T08:30:04;30.48;;;14.48;;
21671;SDS011;10997;52.242;8.168;2023-01-31T08:35:06;34.03;;;14.82;;
21671;SDS011;10997;52.242;8.168;2023-01-31T08:40:07;36.95;;;15.43;;
21671;SDS011;10997;52.242;8.168;2023-01-31T08:45:09;41.25;;;15.05;;
21671;SDS011;10997;52.242;8.168;2023-01-31T08:50:10;36.78;;;15.60;;
21671;SDS011;10997;52.242;8.168;2023-01-31T08:55:11;37.70;;;15.57;;
21671;SDS011;10997;52.242;8.168;2023-01-31T09:00:13;33.28;;;14.05;;
21671;SDS011;10997;52.242;8.168;2023-01-31T09:05:13;35.58;;;14.50;;
21671;SDS011;10997;52.242;8.168;2023-01-31T09:10:14;29.20;;;11.77;;
21671;SDS011;10997;52.242;8.168;2023-01-31T09:15:16;34.17;;;12.70;;
21671;SDS011;10997;52.242;8.168;2023-01-31T09:20:16;36.63;;;12.45;;
21671;SDS011;10997;52.242;8.168;2023-01-31T09:25:17;31.10;;;11.15;;
21671;SDS011;10997;52.242;8.168;2023-01-31T09:30:18;37.70;;;11.93;;
21671;SDS011;10997;52.242;8.168;2023-01-31T09:35:19;28.67;;;11.15;;
21671;SDS011;10997;52.242;8.168;2023-01-31T09:40:20;33.45;;;11.35;;
21671;SDS011;10997;52.242;8.168;2023-01-31T09:45:31;27.25;;;11.57;;
21671;SDS011;10997;52.242;8.168;2023-01-31T09:50:39;30.40;;;11.73;;
21671;SDS011;10997;52.242;8.168;2023-01-31T09:55:50;31.13;;;11.82;;
21671;SDS011;10997;52.242;8.168;2023-01-31T10:01:05;32.22;;;10.98;;
21671;SDS011;10997;52.242;8.168;2023-01-31T10:06:20;25.15;;;10.70;;
21671;SDS011;10997;52.242;8.168;2023-01-31T10:11:50;31.13;;;12.35;;
21671;SDS011;10997;52.242;8.168;2023-01-31T10:22:04;33.88;;;11.88;;
21671;SDS011;10997;52.242;8.168;2023-01-31T10:27:13;29.17;;;12.07;;
21671;SDS011;10997;52.242;8.168;2023-01-31T10:32:39;27.92;;;13.13;;
21671;SDS011;10997;52.242;8.168;2023-01-31T10:37:50;27.05;;;12.18;;
21671;SDS011;10997;52.242;8.168;2023-01-31T10:42:57;30.65;;;13.13;;
21671;SDS011;10997;52.242;8.168;2023-01-31T10:58:45;31.35;;;13.00;;
21671;SDS011;10997;52.242;8.168;2023-01-31T11:03:50;30.63;;;13.05;;
21671;SDS011;10997;52.242;8.168;2023-01-31T11:08:58;28.38;;;12.57;;
21671;SDS011;10997;52.242;8.168;2023-01-31T11:14:01;31.48;;;13.05;;
21671;SDS011;10997;52.242;8.168;2023-01-31T11:19:11;29.25;;;12.52;;
21671;SDS011;10997;52.242;8.168;2023-01-31T11:24:21;28.15;;;12.68;;
21671;SDS011;10997;52.242;8.168;2023-01-31T11:29:26;27.58;;;12.52;;
21671;SDS011;10997;52.242;8.168;2023-01-31T11:34:32;25.85;;;11.05;;
21671;SDS011;10997;52.242;8.168;2023-01-31T11:39:34;25.27;;;11.93;;
21671;SDS011;10997;52.242;8.168;2023-01-31T11:44:49;27.65;;;10.18;;
21671;SDS011;10997;52.242;8.168;2023-01-31T11:54:55;27.20;;;11.60;;
21671;SDS011;10997;52.242;8.168;2023-01-31T12:00:05;28.10;;;11.18;;
21671;SDS011;10997;52.242;8.168;2023-01-31T12:05:19;28.05;;;11.65;;
21671;SDS011;10997;52.242;8.168;2023-01-31T12:15:32;30.70;;;12.80;;
21671;SDS011;10997;52.242;8.168;2023-01-31T12:20:38;29.90;;;13.13;;
21671;SDS011;10997;52.242;8.168;2023-01-31T12:36:33;35.00;;;14.95;;
21671;SDS011;10997;52.242;8.168;2023-01-31T12:57:35;30.25;;;17.23;;
21671;SDS011;10997;52.242;8.168;2023-01-31T13:02:45;25.42;;;13.75;;
21671;SDS011;10997;52.242;8.168;2023-01-31T13:13:05;29.67;;;17.88;;
21671;SDS011;10997;52.242;8.168;2023-01-31T13:18:16;27.95;;;15.88;;
21671;SDS011;10997;52.242;8.168;2023-01-31T13:23:19;26.35;;;15.98;;
21671;SDS011;10997;52.242;8.168;2023-01-31T13:28:29;34.85;;;18.45;;
21671;SDS011;10997;52.242;8.168;2023-01-31T13:38:41;20.75;;;15.05;;
21671;SDS011;10997;52.242;8.168;2023-01-31T13:48:58;24.20;;;17.60;;
21671;SDS011;10997;52.242;8.168;2023-01-31T13:54:18;28.80;;;18.05;;
21671;SDS011;10997;52.242;8.168;2023-01-31T13:59:30;25.65;;;15.23;;
21671;SDS011;10997;52.242;8.168;2023-01-31T14:04:36;31.90;;;20.25;;
21671;SDS011;10997;52.242;8.168;2023-01-31T14:09:38;27.65;;;17.70;;
21671;SDS011;10997;52.242;8.168;2023-01-31T14:15:43;32.80;;;18.75;;
21671;SDS011;10997;52.242;8.168;2023-01-31T14:20:45;26.13;;;14.80;;
21671;SDS011;10997;52.242;8.168;2023-01-31T14:25:46;23.58;;;15.60;;
21671;SDS011;10997;52.242;8.168;2023-01-31T14:30:46;25.73;;;16.42;;
21671;SDS011;10997;52.242;8.168;2023-01-31T14:35:57;27.05;;;15.98;;
21671;SDS011;10997;52.242;8.168;2023-01-31T15:01:54;18.15;;;12.57;;
21671;SDS011;10997;52.242;8.168;2023-01-31T15:06:56;21.67;;;12.60;;
21671;SDS011;10997;52.242;8.168;2023-01-31T15:11:57;18.90;;;11.40;;
21671;SDS011;10997;52.242;8.168;2023-01-31T15:22:11;20.25;;;11.73;;
21671;SDS011;10997;52.242;8.168;2023-01-31T15:27:22;16.00;;;9.85;;
21671;SDS011;10997;52.242;8.168;2023-01-31T15:37:39;15.88;;;9.00;;
21671;SDS011;10997;52.242;8.168;2023-01-31T15:42:41;12.63;;;7.38;;
21671;SDS011;10997;52.242;8.168;2023-01-31T15:47:42;14.50;;;8.38;;
21671;SDS011;10997;52.242;8.168;2023-01-31T15:52:55;19.13;;;8.63;;
21671;SDS011;10997;52.242;8.168;2023-01-31T15:58:01;17.70;;;8.73;;
21671;SDS011;10997;52.242;8.168;2023-01-31T16:03:06;17.60;;;9.65;;
21671;SDS011;10997;52.242;8.168;2023-01-31T16:13:29;13.00;;;6.80;;
21671;SDS011;10997;52.242;8.168;2023-01-31T16:18:31;19.73;;;6.75;;
21671;SDS011;10997;52.242;8.168;2023-01-31T16:23:33;16.10;;;5.60;;
21671;SDS011;10997;52.242;8.168;2023-01-31T16:28:38;13.63;;;5.72;;
21671;SDS011;10997;52.242;8.168;2023-01-31T16:33:53;18.45;;;6.38;;
21671;SDS011;10997;52.242;8.168;2023-01-31T16:39:05;13.98;;;5.30;;
21671;SDS011;10997;52.242;8.168;2023-01-31T16:44:10;19.33;;;5.68;;
21671;SDS011;10997;52.242;8.168;2023-01-31T16:54:28;16.27;;;4.93;;
21671;SDS011;10997;52.242;8.168;2023-01-31T17:04:33;23.45;;;5.45;;
21671;SDS011;10997;52.242;8.168;2023-01-31T17:09:39;19.27;;;4.85;;
21671;SDS011;10997;52.242;8.168;2023-01-31T17:14:39;17.83;;;5.60;;
21671;SDS011;10997;52.242;8.168;2023-01-31T17:19:40;23.80;;;5.15;;
21671;SDS011;10997;52.242;8.168;2023-01-31T17:24:41;20.23;;;4.30;;
21671;SDS011;10997;52.242;8.168;2023-01-31T17:29:42;22.73;;;4.72;;
21671;SDS011;10997;52.242;8.168;2023-01-31T17:34:43;20.95;;;4.25;;
21671;SDS011;10997;52.242;8.168;2023-01-31T17:39:44;19.80;;;3.85;;
21671;SDS011;10997;52.242;8.168;2023-01-31T17:44:45;20.23;;;3.65;;
21671;SDS011;10997;52.242;8.168;2023-01-31T17:49:46;19.27;;;3.45;;
21671;SDS011;10997;52.242;8.168;2023-01-31T17:54:47;22.55;;;4.45;;
21671;SDS011;10997;52.242;8.168;2023-01-31T17:59:48;24.88;;;3.67;;
21671;SDS011;10997;52.242;8.168;2023-01-31T18:04:48;18.95;;;3.55;;
21671;SDS011;10997;52.242;8.168;2023-01-31T18:09:49;22.50;;;4.05;;
21671;SDS011;10997;52.242;8.168;2023-01-31T18:14:50;22.48;;;3.75;;
21671;SDS011;10997;52.242;8.168;2023-01-31T18:19:50;22.52;;;3.45;;
21671;SDS011;10997;52.242;8.168;2023-01-31T18:24:51;16.42;;;3.92;;
21671;SDS011;10997;52.242;8.168;2023-01-31T18:29:52;21.65;;;4.63;;
21671;SDS011;10997;52.242;8.168;2023-01-31T18:34:54;22.08;;;4.03;;
21671;SDS011;10997;52.242;8.168;2023-01-31T18:39:56;26.13;;;3.95;;
21671;SDS011;10997;52.242;8.168;2023-01-31T18:44:56;20.85;;;3.78;;
21671;SDS011;10997;52.242;8.168;2023-01-31T18:49:57;24.70;;;4.97;;
21671;SDS011;10997;52.242;8.168;2023-01-31T18:54:58;20.85;;;4.35;;
21671;SDS011;10997;52.242;8.168;2023-01-31T18:59:58;19.05;;;4.05;;
21671;SDS011;10997;52.242;8.168;2023-01-31T19:04:59;23.95;;;4.03;;
21671;SDS011;10997;52.242;8.168;2023-01-31T19:10:00;22.80;;;4.00;;
21671;SDS011;10997;52.242;8.168;2023-01-31T19:15:02;21.13;;;3.75;;
21671;SDS011;10997;52.242;8.168;2023-01-31T19:20:03;21.27;;;4.22;;
21671;SDS011;10997;52.242;8.168;2023-01-31T19:25:04;27.92;;;3.80;;
21671;SDS011;10997;52.242;8.168;2023-01-31T19:30:08;25.98;;;4.18;;
21671;SDS011;10997;52.242;8.168;2023-01-31T19:35:09;22.77;;;4.35;;
21671;SDS011;10997;52.242;8.168;2023-01-31T19:40:09;21.92;;;4.00;;
21671;SDS011;10997;52.242;8.168;2023-01-31T19:45:10;25.58;;;4.03;;
21671;SDS011;10997;52.242;8.168;2023-01-31T19:50:11;21.40;;;3.72;;
21671;SDS011;10997;52.242;8.168;2023-01-31T19:55:11;22.52;;;3.65;;
21671;SDS011;10997;52.242;8.168;2023-01-31T20:00:12;23.15;;;4.20;;
21671;SDS011;10997;52.242;8.168;2023-01-31T20:05:13;25.55;;;3.47;;
21671;SDS011;10997;52.242;8.168;2023-01-31T20:10:14;16.92;;;3.88;;
21671;SDS011;10997;52.242;8.168;2023-01-31T20:15:14;25.88;;;4.20;;
21671;SDS011;10997;52.242;8.168;2023-01-31T20:20:15;30.33;;;4.57;;
21671;SDS011;10997;52.242;8.168;2023-01-31T20:25:19;29.55;;;4.55;;
21671;SDS011;10997;52.242;8.168;2023-01-31T20:30:20;24.75;;;4.28;;
21671;SDS011;10997;52.242;8.168;2023-01-31T20:35:22;24.35;;;4.07;;
21671;SDS011;10997;52.242;8.168;2023-01-31T20:40:24;24.65;;;4.53;;
21671;SDS011;10997;52.242;8.168;2023-01-31T20:45:24;26.80;;;4.32;;
21671;SDS011;10997;52.242;8.168;2023-01-31T20:50:27;28.55;;;4.28;;
21671;SDS011;10997;52.242;8.168;2023-01-31T20:55:28;26.20;;;5.18;;
21671;SDS011;10997;52.242;8.168;2023-01-31T21:00:29;24.77;;;4.05;;
21671;SDS011;10997;52.242;8.168;2023-01-31T21:05:30;20.40;;;3.95;;
21671;SDS011;10997;52.242;8.168;2023-01-31T21:10:30;27.35;;;4.47;;
21671;SDS011;10997;52.242;8.168;2023-01-31T21:15:31;29.60;;;4.57;;
21671;SDS011;10997;52.242;8.168;2023-01-31T21:20:31;27.83;;;4.10;;
21671;SDS011;10997;52.242;8.168;2023-01-31T21:25:32;29.67;;;4.78;;
21671;SDS011;10997;52.242;8.168;2023-01-31T21:30:34;29.48;;;5.18;;
21671;SDS011;10997;52.242;8.168;2023-01-31T21:35:35;25.08;;;4.88;;
21671;SDS011;10997;52.242;8.168;2023-01-31T21:40:35;25.35;;;4.38;;
21671;SDS011;10997;52.242;8.168;2023-01-31T21:45:38;31.42;;;4.80;;
21671;SDS011;10997;52.242;8.168;2023-01-31T21:50:38;26.55;;;3.72;;
21671;SDS011;10997;52.242;8.168;2023-01-31T21:55:39;24.02;;;4.45;;
21671;SDS011;10997;52.242;8.168;2023-01-31T22:00:39;29.15;;;5.07;;
21671;SDS011;10997;52.242;8.168;2023-01-31T22:05:42;30.40;;;4.25;;
21671;SDS011;10997;52.242;8.168;2023-01-31T22:10:43;25.45;;;4.13;;
21671;SDS011;10997;52.242;8.168;2023-01-31T22:15:43;32.38;;;5.60;;
21671;SDS011;10997;52.242;8.168;2023-01-31T22:20:44;26.85;;;5.10;;
21671;SDS011;10997;52.242;8.168;2023-01-31T22:25:44;28.55;;;4.93;;
21671;SDS011;10997;52.242;8.168;2023-01-31T22:30:55;28.73;;;4.63;;
21671;SDS011;10997;52.242;8.168;2023-01-31T22:35:57;26.23;;;4.82;;
21671;SDS011;10997;52.242;8.168;2023-01-31T22:40:59;23.35;;;4.88;;
21671;SDS011;10997;52.242;8.168;2023-01-31T22:46:05;24.05;;;4.30;;
21671;SDS011;10997;52.242;8.168;2023-01-31T22:51:11;32.95;;;5.65;;
21671;SDS011;10997;52.242;8.168;2023-01-31T22:56:14;26.33;;;4.60;;
21671;SDS011;10997;52.242;8.168;2023-01-31T23:01:18;29.40;;;4.20;;
21671;SDS011;10997;52.242;8.168;2023-01-31T23:06:20;28.17;;;4.30;;
21671;SDS011;10997;52.242;8.168;2023-01-31T23:16:46;25.30;;;4.28;;
21671;SDS011;10997;52.242;8.168;2023-01-31T23:22:05;26.40;;;4.00;;
21671;SDS011;10997;52.242;8.168;2023-01-31T23:27:06;26.73;;;4.72;;
21671;SDS011;10997;52.242;8.168;2023-01-31T23:32:06;36.65;;;5.50;;
21671;SDS011;10997;52.242;8.168;2023-01-31T23:37:07;25.20;;;4.65;;
21671;SDS011;10997;52.242;8.168;2023-01-31T23:42:09;28.55;;;4.57;;
21671;SDS011;10997;52.242;8.168;2023-01-31T23:47:10;25.33;;;4.47;;
21671;SDS011;10997;52.242;8.168;2023-01-31T23:52:10;30.20;;;4.25;;
21671;SDS011;10997;52.242;8.168;2023-01-31T23:57:11;22.02;;;4.47;;
